Aviation Digital Data Service (ADDS)

Output produced by METARs form (1743 UTC 21 September 2019)
found at http://aviationweather.gov/metar/data/
 
KARA 211653Z 11007KT 10SM SCT036 SCT042 BKN065 32/24 A3013 RMK AO2 SLP202 T03220239 $
KARA 211737Z 2118/2218 12008KT P6SM VCSH BKN025 BKN050 
     FM212200 12010KT P6SM VCSH BKN025 BKN050 
     FM220200 07003KT P6SM SCT250 
     FM221400 13007KT P6SM FEW025